map of PAV home
PAV - Airport
Location
City:  Paulo Afonso, Bahia, Brazil
ICAO:SBUF
IATA:PAV

Details
Type:Airport (Aerodrome, Airfield)
Latitude:924'03"S (-9.400877)
Longitude:3815'02"W (-38.250574)
Datum:WGS 1984
Elevation:883 ft (269 m)
Variation:22.66W (WMM2015 magnetic declination)
0.00 annual change
Runways:1
Longest:5906 × 148 ft (1800 × 45 m), paved

Time
Time Zone:UTC-3
Local Time:

Weather
METAR:SBUF 101900Z 12009KT 9999 -TSRA BKN016 FEW020CB BKN070 24/23 Q1017

Related Locations
Nearby:
Farthest:ULI: 12307 mi / 19807 km
Falalop Island [Ulithi Civil Airfield], Ulithi Atoll, YAP, FM

Find:

   beyond  
but within

Other Information
Maps:
NOTAMs:
Links:
Sources:

  
  • flag of Brazil
  • flag of Bahia
  

Sectional Chart

Flight Planning
at skyvector.com

Satellite Image

Google Maps Satellite view

 

Copyright © 2004-2018 Karl L. Swartz. All rights reserved.
The Great Circle Mapper name and logo are trademarks of the Great Circle Mapper.
All other trademarks mentioned herein belong to their respective owners.
Please see credits for attibutions and further copyright information.

  Follow gcmap on Facebook Follow gcmap on Twitter Follow gcmap on Google+ GCmap on LinkedIn

hCard Microformat

Geo Microformat